FIN1739 EFHK-LPPT
Flight info
| Callsign | FIN1739 |
|---|---|
| Flight time | N/A |
| Altitude | 32000 |
| Route | NUNTO Y367 OLPED DCT OBEVI DCT NISIX DCT TOKSI DCT DOSUR DCT EEL DCT GISEB/N0450F340 DCT NIK DCT CIV/N0448F330 N872 MEDIL DCT KOVIN DCT NIDUV DCT KIHVI UN872 ERIGA DCT FUJTI DCT BAKUP/N0449F350 DCT BATAX DCT INBOM |
| Aircraft | A321/M-SDE3FGHIRWY/LB1 |
Departure
| Time | N/A |
|---|---|
| Airport | Helsinki Vantaa Airport (EFHK) |
Arrival
| Time | 2026-04-27 21:56 |
|---|---|
| Airport | Lisbon Humberto Delgado Airport (LPPT) |
| Time | Latitude | Longitude | Altitude | Speed | Heading |
|---|---|---|---|---|---|
| 2026-04-27 20:39 | 45.63025 | -3.42660 | 32166 ft | 414 kts | 214° |
| 2026-04-27 20:40 | 45.58078 | -3.46860 | 32162 ft | 414 kts | 214° |
| 2026-04-27 20:40 | 45.53130 | -3.51054 | 32171 ft | 413 kts | 214° |
| 2026-04-27 20:41 | 45.48181 | -3.55240 | 32163 ft | 413 kts | 213° |
| 2026-04-27 20:41 | 45.43261 | -3.59387 | 32161 ft | 414 kts | 213° |
| 2026-04-27 20:42 | 45.38294 | -3.63563 | 32162 ft | 414 kts | 213° |
| 2026-04-27 20:42 | 45.33334 | -3.67733 | 32165 ft | 414 kts | 213° |
| 2026-04-27 20:43 | 45.28366 | -3.71918 | 32142 ft | 416 kts | 213° |
| 2026-04-27 20:43 | 45.23370 | -3.76110 | 32141 ft | 417 kts | 213° |
| 2026-04-27 20:44 | 45.18353 | -3.80289 | 32146 ft | 418 kts | 213° |
| 2026-04-27 20:44 | 45.13355 | -3.84441 | 32163 ft | 419 kts | 213° |
| 2026-04-27 20:45 | 45.08312 | -3.88630 | 32153 ft | 420 kts | 213° |
| 2026-04-27 20:45 | 45.03265 | -3.92833 | 32159 ft | 421 kts | 213° |
| 2026-04-27 20:46 | 44.98203 | -3.97027 | 32170 ft | 421 kts | 213° |
| 2026-04-27 20:46 | 44.93141 | -4.01212 | 32170 ft | 421 kts | 212° |
| 2026-04-27 20:47 | 44.88106 | -4.05361 | 32150 ft | 422 kts | 212° |
| 2026-04-27 20:47 | 44.83022 | -4.09548 | 32149 ft | 423 kts | 212° |
| 2026-04-27 20:48 | 44.77924 | -4.13736 | 32156 ft | 424 kts | 212° |
| 2026-04-27 20:48 | 44.72817 | -4.17927 | 32161 ft | 425 kts | 212° |
| 2026-04-27 20:49 | 44.67710 | -4.22105 | 32159 ft | 425 kts | 212° |
| 2026-04-27 20:49 | 44.62596 | -4.26270 | 32160 ft | 425 kts | 212° |
| 2026-04-27 20:50 | 44.57512 | -4.30408 | 32167 ft | 425 kts | 212° |
| 2026-04-27 20:50 | 44.52390 | -4.34580 | 32155 ft | 425 kts | 212° |
| 2026-04-27 20:51 | 44.47268 | -4.38743 | 32144 ft | 426 kts | 212° |
| 2026-04-27 20:51 | 44.42128 | -4.42902 | 32144 ft | 427 kts | 212° |
| 2026-04-27 20:52 | 44.37013 | -4.47113 | 32151 ft | 427 kts | 213° |
| 2026-04-27 20:52 | 44.31944 | -4.51438 | 32147 ft | 427 kts | 213° |
| 2026-04-27 20:53 | 44.26883 | -4.55769 | 32148 ft | 427 kts | 213° |
| 2026-04-27 20:53 | 44.21807 | -4.60071 | 32153 ft | 427 kts | 213° |
| 2026-04-27 20:54 | 44.14208 | -4.66458 | 32150 ft | 427 kts | 213° |
| 2026-04-27 20:55 | 44.09109 | -4.70733 | 32130 ft | 427 kts | 213° |
| 2026-04-27 20:55 | 44.04007 | -4.75010 | 32132 ft | 428 kts | 213° |
| 2026-04-27 20:56 | 43.98899 | -4.79275 | 32145 ft | 429 kts | 213° |
| 2026-04-27 20:56 | 43.93783 | -4.83539 | 32139 ft | 429 kts | 213° |
| 2026-04-27 20:57 | 43.88662 | -4.87803 | 32147 ft | 429 kts | 213° |
| 2026-04-27 20:57 | 43.83530 | -4.92066 | 32149 ft | 430 kts | 213° |
| 2026-04-27 20:58 | 43.78426 | -4.96301 | 32162 ft | 430 kts | 213° |
| 2026-04-27 20:58 | 43.73294 | -5.00551 | 32168 ft | 430 kts | 212° |
| 2026-04-27 20:59 | 43.68167 | -5.04789 | 32144 ft | 430 kts | 212° |
| 2026-04-27 20:59 | 43.63018 | -5.09035 | 32143 ft | 430 kts | 212° |
| 2026-04-27 21:00 | 43.57864 | -5.13267 | 32145 ft | 430 kts | 212° |
| 2026-04-27 21:00 | 43.52749 | -5.17458 | 32149 ft | 431 kts | 212° |
| 2026-04-27 21:01 | 43.47600 | -5.21673 | 32135 ft | 431 kts | 212° |
| 2026-04-27 21:01 | 43.42447 | -5.25889 | 32130 ft | 431 kts | 212° |
| 2026-04-27 21:02 | 43.37290 | -5.30108 | 32131 ft | 431 kts | 212° |
| 2026-04-27 21:02 | 43.32121 | -5.34320 | 32130 ft | 431 kts | 212° |
| 2026-04-27 21:03 | 43.26952 | -5.38516 | 32113 ft | 431 kts | 212° |
| 2026-04-27 21:03 | 43.21786 | -5.42703 | 32108 ft | 431 kts | 212° |
| 2026-04-27 21:04 | 43.16622 | -5.46885 | 32107 ft | 431 kts | 212° |
| 2026-04-27 21:04 | 43.11449 | -5.51073 | 32101 ft | 432 kts | 212° |
| 2026-04-27 21:05 | 43.06306 | -5.55220 | 32091 ft | 432 kts | 212° |
| 2026-04-27 21:05 | 43.01113 | -5.59400 | 32086 ft | 432 kts | 212° |
| 2026-04-27 21:06 | 42.95932 | -5.63562 | 32083 ft | 432 kts | 212° |
| 2026-04-27 21:06 | 42.90744 | -5.67711 | 32079 ft | 432 kts | 212° |
| 2026-04-27 21:07 | 42.85558 | -5.71847 | 32072 ft | 432 kts | 212° |
| 2026-04-27 21:07 | 42.81249 | -5.75296 | 32077 ft | 433 kts | 212° |
| 2026-04-27 21:08 | 42.76039 | -5.79463 | 32087 ft | 433 kts | 212° |
| 2026-04-27 21:08 | 42.70872 | -5.83565 | 32087 ft | 433 kts | 212° |
| 2026-04-27 21:09 | 42.65656 | -5.87699 | 32093 ft | 433 kts | 212° |
| 2026-04-27 21:09 | 42.60414 | -5.91849 | 32089 ft | 434 kts | 212° |
| 2026-04-27 21:10 | 42.55201 | -5.95972 | 32087 ft | 434 kts | 212° |
| 2026-04-27 21:10 | 42.50015 | -6.00070 | 32085 ft | 434 kts | 212° |
| 2026-04-27 21:11 | 42.44796 | -6.04194 | 32063 ft | 434 kts | 212° |
| 2026-04-27 21:11 | 42.39565 | -6.08304 | 32060 ft | 435 kts | 211° |
| 2026-04-27 21:12 | 42.34329 | -6.12407 | 32069 ft | 435 kts | 211° |
| 2026-04-27 21:12 | 42.29093 | -6.16503 | 32073 ft | 435 kts | 211° |
| 2026-04-27 21:13 | 42.23847 | -6.20609 | 32068 ft | 435 kts | 211° |
| 2026-04-27 21:13 | 42.18642 | -6.24670 | 32065 ft | 435 kts | 211° |
| 2026-04-27 21:14 | 42.13395 | -6.28756 | 32067 ft | 435 kts | 211° |
| 2026-04-27 21:14 | 42.08142 | -6.32837 | 32066 ft | 436 kts | 211° |
| 2026-04-27 21:15 | 42.02884 | -6.36910 | 32072 ft | 436 kts | 211° |
| 2026-04-27 21:15 | 41.97619 | -6.40989 | 32054 ft | 436 kts | 211° |
| 2026-04-27 21:16 | 41.92348 | -6.45061 | 32057 ft | 437 kts | 211° |
| 2026-04-27 21:16 | 41.87074 | -6.49123 | 32069 ft | 437 kts | 211° |
| 2026-04-27 21:17 | 41.81803 | -6.53177 | 32066 ft | 437 kts | 211° |
| 2026-04-27 21:17 | 41.76556 | -6.57207 | 32049 ft | 437 kts | 211° |
| 2026-04-27 21:18 | 41.71278 | -6.61255 | 32048 ft | 437 kts | 211° |
| 2026-04-27 21:18 | 41.66354 | -6.65973 | 32044 ft | 435 kts | 218° |
| 2026-04-27 21:19 | 41.61543 | -6.70888 | 32031 ft | 435 kts | 218° |
| 2026-04-27 21:19 | 41.56714 | -6.75800 | 32015 ft | 435 kts | 218° |
| 2026-04-27 21:20 | 41.49513 | -6.83107 | 32012 ft | 436 kts | 218° |
| 2026-04-27 21:20 | 41.44678 | -6.87997 | 32003 ft | 436 kts | 217° |
| 2026-04-27 21:21 | 41.39817 | -6.92910 | 32006 ft | 436 kts | 217° |
| 2026-04-27 21:21 | 41.35004 | -6.97766 | 31996 ft | 436 kts | 217° |
| 2026-04-27 21:22 | 41.30156 | -7.02649 | 31980 ft | 437 kts | 217° |
| 2026-04-27 21:22 | 41.25307 | -7.07537 | 31981 ft | 438 kts | 217° |
| 2026-04-27 21:23 | 41.20442 | -7.12424 | 31986 ft | 438 kts | 217° |
| 2026-04-27 21:23 | 41.15579 | -7.17296 | 31989 ft | 439 kts | 217° |
| 2026-04-27 21:24 | 41.10700 | -7.22175 | 31997 ft | 439 kts | 217° |
| 2026-04-27 21:24 | 41.05842 | -7.27013 | 31681 ft | 434 kts | 217° |
| 2026-04-27 21:25 | 41.03427 | -7.29418 | 31117 ft | 432 kts | 217° |
| 2026-04-27 21:25 | 41.01016 | -7.31819 | 30562 ft | 434 kts | 217° |
| 2026-04-27 21:25 | 40.98599 | -7.34222 | 30047 ft | 435 kts | 217° |
| 2026-04-27 21:25 | 40.96174 | -7.36629 | 29433 ft | 437 kts | 217° |
| 2026-04-27 21:26 | 40.93732 | -7.39054 | 28838 ft | 440 kts | 217° |
| 2026-04-27 21:26 | 40.91274 | -7.41490 | 28227 ft | 443 kts | 217° |
| 2026-04-27 21:26 | 40.88804 | -7.43940 | 27647 ft | 445 kts | 217° |
| 2026-04-27 21:26 | 40.86319 | -7.46402 | 27077 ft | 449 kts | 217° |
| 2026-04-27 21:27 | 40.83775 | -7.48919 | 26510 ft | 452 kts | 217° |
| 2026-04-27 21:27 | 40.81287 | -7.51374 | 25972 ft | 454 kts | 216° |
| 2026-04-27 21:27 | 40.78741 | -7.53882 | 25429 ft | 457 kts | 216° |
| 2026-04-27 21:27 | 40.76191 | -7.56396 | 25071 ft | 459 kts | 216° |
| 2026-04-27 21:28 | 40.73628 | -7.58922 | 24939 ft | 460 kts | 216° |
| 2026-04-27 21:28 | 40.71068 | -7.61438 | 24977 ft | 458 kts | 216° |
| 2026-04-27 21:28 | 40.68515 | -7.63943 | 24974 ft | 456 kts | 216° |
| 2026-04-27 21:28 | 40.65976 | -7.66432 | 24976 ft | 455 kts | 216° |
| 2026-04-27 21:29 | 40.63434 | -7.68927 | 24970 ft | 454 kts | 216° |
| 2026-04-27 21:29 | 40.60906 | -7.71412 | 24971 ft | 452 kts | 216° |
| 2026-04-27 21:29 | 40.58384 | -7.73883 | 24972 ft | 451 kts | 216° |
| 2026-04-27 21:29 | 40.55867 | -7.76321 | 24972 ft | 449 kts | 216° |
| 2026-04-27 21:30 | 40.53330 | -7.78732 | 24975 ft | 448 kts | 215° |
| 2026-04-27 21:30 | 40.50833 | -7.81079 | 24975 ft | 447 kts | 215° |
| 2026-04-27 21:30 | 40.48271 | -7.83474 | 24974 ft | 446 kts | 215° |
| 2026-04-27 21:30 | 40.45745 | -7.85832 | 24969 ft | 445 kts | 215° |
| 2026-04-27 21:31 | 40.43260 | -7.88158 | 24971 ft | 444 kts | 215° |
| 2026-04-27 21:31 | 40.40741 | -7.90522 | 24966 ft | 443 kts | 215° |
| 2026-04-27 21:31 | 40.38239 | -7.92870 | 24967 ft | 443 kts | 215° |
| 2026-04-27 21:31 | 40.35727 | -7.95228 | 24964 ft | 442 kts | 215° |
| 2026-04-27 21:32 | 40.33232 | -7.97570 | 24967 ft | 442 kts | 215° |
| 2026-04-27 21:32 | 40.30733 | -7.99912 | 24967 ft | 441 kts | 215° |
| 2026-04-27 21:32 | 40.28234 | -8.02251 | 24964 ft | 441 kts | 215° |
| 2026-04-27 21:32 | 40.25736 | -8.04586 | 24961 ft | 440 kts | 215° |
| 2026-04-27 21:33 | 40.23271 | -8.06889 | 24961 ft | 440 kts | 215° |
| 2026-04-27 21:33 | 40.20774 | -8.09220 | 24961 ft | 440 kts | 215° |
| 2026-04-27 21:33 | 40.18281 | -8.11543 | 24954 ft | 439 kts | 215° |
| 2026-04-27 21:33 | 40.15793 | -8.13855 | 24958 ft | 439 kts | 215° |
| 2026-04-27 21:34 | 40.13295 | -8.16174 | 24961 ft | 439 kts | 215° |
| 2026-04-27 21:34 | 40.10810 | -8.18479 | 24961 ft | 438 kts | 215° |
| 2026-04-27 21:34 | 40.08325 | -8.20788 | 24959 ft | 438 kts | 215° |
| 2026-04-27 21:34 | 40.05841 | -8.23098 | 24958 ft | 438 kts | 215° |
| 2026-04-27 21:35 | 40.03356 | -8.25408 | 24956 ft | 438 kts | 215° |
| 2026-04-27 21:35 | 40.00869 | -8.27717 | 24956 ft | 438 kts | 215° |
| 2026-04-27 21:35 | 39.98387 | -8.30014 | 24956 ft | 438 kts | 215° |
| 2026-04-27 21:35 | 39.95899 | -8.32311 | 24956 ft | 438 kts | 215° |
| 2026-04-27 21:36 | 39.93411 | -8.34605 | 24957 ft | 438 kts | 215° |
| 2026-04-27 21:36 | 39.90925 | -8.36895 | 24953 ft | 437 kts | 214° |
| 2026-04-27 21:36 | 39.88442 | -8.39185 | 24953 ft | 437 kts | 214° |
| 2026-04-27 21:36 | 39.85957 | -8.41472 | 24953 ft | 437 kts | 214° |
| 2026-04-27 21:37 | 39.83478 | -8.43752 | 24953 ft | 437 kts | 214° |
| 2026-04-27 21:37 | 39.80997 | -8.46033 | 24953 ft | 437 kts | 214° |
| 2026-04-27 21:37 | 39.78519 | -8.48310 | 24954 ft | 436 kts | 214° |
| 2026-04-27 21:37 | 39.76035 | -8.50589 | 24958 ft | 436 kts | 214° |
| 2026-04-27 21:38 | 39.73546 | -8.52874 | 24824 ft | 439 kts | 214° |
| 2026-04-27 21:38 | 39.71066 | -8.55152 | 24584 ft | 445 kts | 214° |
| 2026-04-27 21:38 | 39.68519 | -8.57489 | 24222 ft | 452 kts | 215° |
| 2026-04-27 21:38 | 39.65903 | -8.59881 | 23994 ft | 456 kts | 214° |
| 2026-04-27 21:39 | 39.63351 | -8.62212 | 23763 ft | 454 kts | 214° |
| 2026-04-27 21:39 | 39.60763 | -8.64573 | 23537 ft | 456 kts | 214° |
| 2026-04-27 21:39 | 39.58156 | -8.66947 | 23268 ft | 458 kts | 214° |
| 2026-04-27 21:39 | 39.55548 | -8.69319 | 22989 ft | 458 kts | 215° |
| 2026-04-27 21:40 | 39.52937 | -8.71701 | 22722 ft | 457 kts | 215° |
| 2026-04-27 21:40 | 39.50340 | -8.74072 | 22466 ft | 455 kts | 215° |
| 2026-04-27 21:40 | 39.47758 | -8.76425 | 22191 ft | 454 kts | 215° |
| 2026-04-27 21:40 | 39.45176 | -8.78774 | 21924 ft | 452 kts | 215° |
| 2026-04-27 21:41 | 39.42603 | -8.81110 | 21671 ft | 451 kts | 215° |
| 2026-04-27 21:41 | 39.40033 | -8.83433 | 21412 ft | 450 kts | 215° |
| 2026-04-27 21:41 | 39.37471 | -8.85744 | 21149 ft | 449 kts | 215° |
| 2026-04-27 21:41 | 39.34919 | -8.88049 | 20899 ft | 447 kts | 215° |
| 2026-04-27 21:42 | 39.32369 | -8.90353 | 20649 ft | 446 kts | 215° |
| 2026-04-27 21:42 | 39.29830 | -8.92647 | 20405 ft | 445 kts | 215° |
| 2026-04-27 21:42 | 39.27305 | -8.94930 | 20163 ft | 443 kts | 215° |
| 2026-04-27 21:42 | 39.24782 | -8.97211 | 19921 ft | 442 kts | 215° |
| 2026-04-27 21:43 | 39.22257 | -8.99491 | 19669 ft | 441 kts | 215° |
| 2026-04-27 21:43 | 39.19739 | -9.01752 | 19145 ft | 440 kts | 215° |
| 2026-04-27 21:43 | 39.17233 | -9.03987 | 18583 ft | 437 kts | 214° |
| 2026-04-27 21:43 | 39.14747 | -9.06204 | 17990 ft | 432 kts | 214° |
| 2026-04-27 21:44 | 39.12283 | -9.08407 | 17348 ft | 425 kts | 215° |
| 2026-04-27 21:44 | 39.09934 | -9.10510 | 16734 ft | 398 kts | 215° |
| 2026-04-27 21:44 | 39.07722 | -9.12492 | 16172 ft | 375 kts | 215° |
| 2026-04-27 21:44 | 39.05666 | -9.14334 | 15599 ft | 356 kts | 215° |
| 2026-04-27 21:45 | 39.03650 | -9.16136 | 15037 ft | 340 kts | 215° |
| 2026-04-27 21:45 | 39.01762 | -9.17820 | 14493 ft | 328 kts | 215° |
| 2026-04-27 21:45 | 38.99922 | -9.19463 | 13941 ft | 317 kts | 215° |
| 2026-04-27 21:45 | 38.98135 | -9.21058 | 13378 ft | 308 kts | 215° |
| 2026-04-27 21:46 | 38.96274 | -9.22283 | 12831 ft | 294 kts | 196° |
| 2026-04-27 21:46 | 38.94319 | -9.22812 | 12244 ft | 283 kts | 189° |
| 2026-04-27 21:46 | 38.92401 | -9.23260 | 11657 ft | 275 kts | 188° |
| 2026-04-27 21:46 | 38.90544 | -9.23685 | 11085 ft | 268 kts | 188° |
| 2026-04-27 21:47 | 38.88725 | -9.24097 | 10536 ft | 262 kts | 188° |
| 2026-04-27 21:47 | 38.86957 | -9.24498 | 9991 ft | 256 kts | 188° |
| 2026-04-27 21:47 | 38.85220 | -9.24892 | 9412 ft | 251 kts | 187° |
| 2026-04-27 21:47 | 38.84081 | -9.25149 | 9009 ft | 248 kts | 187° |
| 2026-04-27 21:48 | 38.82388 | -9.25532 | 8400 ft | 245 kts | 187° |
| 2026-04-27 21:48 | 38.80721 | -9.25912 | 7844 ft | 242 kts | 188° |
| 2026-04-27 21:48 | 38.79085 | -9.26283 | 7309 ft | 235 kts | 188° |
| 2026-04-27 21:48 | 38.77499 | -9.26643 | 6768 ft | 229 kts | 188° |
| 2026-04-27 21:49 | 38.75937 | -9.26997 | 6183 ft | 227 kts | 189° |
| 2026-04-27 21:49 | 38.74386 | -9.27351 | 5601 ft | 226 kts | 189° |
| 2026-04-27 21:49 | 38.72846 | -9.27702 | 5035 ft | 225 kts | 190° |
| 2026-04-27 21:49 | 38.71306 | -9.28053 | 4470 ft | 224 kts | 190° |
| 2026-04-27 21:50 | 38.69772 | -9.28402 | 3995 ft | 222 kts | 190° |
| 2026-04-27 21:50 | 38.68263 | -9.28744 | 3977 ft | 217 kts | 190° |
| 2026-04-27 21:50 | 38.66779 | -9.29077 | 4005 ft | 215 kts | 188° |
| 2026-04-27 21:50 | 38.65354 | -9.28964 | 4002 ft | 195 kts | 161° |
| 2026-04-27 21:51 | 38.64237 | -9.28143 | 4001 ft | 186 kts | 134° |
| 2026-04-27 21:51 | 38.63515 | -9.26814 | 4001 ft | 181 kts | 108° |
| 2026-04-27 21:51 | 38.63306 | -9.25262 | 4004 ft | 177 kts | 83° |
| 2026-04-27 21:51 | 38.63534 | -9.23727 | 3768 ft | 179 kts | 73° |
| 2026-04-27 21:52 | 38.63909 | -9.22153 | 3091 ft | 189 kts | 60° |
| 2026-04-27 21:52 | 38.64740 | -9.20864 | 2397 ft | 189 kts | 36° |
| 2026-04-27 21:52 | 38.65885 | -9.20147 | 2050 ft | 174 kts | 20° |
| 2026-04-27 21:52 | 38.66926 | -9.19601 | 1987 ft | 149 kts | 21° |
| 2026-04-27 21:53 | 38.67835 | -9.19106 | 1854 ft | 139 kts | 21° |
| 2026-04-27 21:53 | 38.68717 | -9.18628 | 1490 ft | 139 kts | 21° |
| 2026-04-27 21:53 | 38.69609 | -9.18150 | 1354 ft | 144 kts | 20° |
| 2026-04-27 21:53 | 38.70545 | -9.17649 | 1313 ft | 147 kts | 21° |
| 2026-04-27 21:54 | 38.71497 | -9.17140 | 1307 ft | 147 kts | 21° |
| 2026-04-27 21:54 | 38.72422 | -9.16642 | 1241 ft | 143 kts | 20° |
| 2026-04-27 21:54 | 38.73329 | -9.16160 | 981 ft | 142 kts | 20° |
| 2026-04-27 21:54 | 38.74247 | -9.15653 | 888 ft | 149 kts | 21° |
| 2026-04-27 21:55 | 38.75233 | -9.15124 | 743 ft | 156 kts | 20° |
| 2026-04-27 21:55 | 38.76226 | -9.14595 | 532 ft | 150 kts | 18° |
| 2026-04-27 21:55 | 38.77129 | -9.14106 | 369 ft | 130 kts | 19° |
| 2026-04-27 21:55 | 38.77788 | -9.13776 | 365 ft | 74 kts | 22° |
| 2026-04-27 21:56 | 38.78037 | -9.13644 | 368 ft | 31 kts | 22° |
| 2026-04-27 21:56 | 38.78356 | -9.13386 | 367 ft | 17 kts | 51° |
| 2026-04-27 21:56 | 38.78359 | -9.13275 | 362 ft | 9 kts | 138° |
| 2026-04-27 21:57 | 38.78290 | -9.13277 | 364 ft | 11 kts | 204° |
| 2026-04-27 21:57 | 38.78215 | -9.13320 | 363 ft | 13 kts | 204° |
| 2026-04-27 21:57 | 38.78127 | -9.13366 | 364 ft | 14 kts | 201° |
| 2026-04-27 21:57 | 38.78028 | -9.13416 | 359 ft | 16 kts | 201° |
| 2026-04-27 21:58 | 38.77919 | -9.13473 | 359 ft | 18 kts | 204° |
| 2026-04-27 21:58 | 38.77795 | -9.13497 | 353 ft | 20 kts | 171° |
| 2026-04-27 21:58 | 38.77654 | -9.13463 | 351 ft | 5 kts | 167° |
| 2026-04-27 21:58 | 38.77609 | -9.13450 | 346 ft | 9 kts | 167° |
| 2026-04-27 21:59 | 38.77537 | -9.13430 | 347 ft | 12 kts | 168° |
| 2026-04-27 21:59 | 38.77447 | -9.13409 | 343 ft | 14 kts | 169° |
| 2026-04-27 21:59 | 38.77345 | -9.13384 | 342 ft | 16 kts | 168° |
| 2026-04-27 21:59 | 38.77234 | -9.13353 | 341 ft | 17 kts | 168° |
| 2026-04-27 22:00 | 38.77114 | -9.13320 | 351 ft | 18 kts | 167° |
| 2026-04-27 22:00 | 38.77023 | -9.13265 | 338 ft | 13 kts | 119° |
| 2026-04-27 22:00 | 38.77018 | -9.13148 | 338 ft | 11 kts | 78° |
| 2026-04-27 22:00 | 38.77024 | -9.13112 | 333 ft | 5 kts | 78° |
| 2026-04-27 22:01 | 38.77026 | -9.13094 | 337 ft | 1 kts | 77° |
| 2026-04-27 22:01 | 38.77027 | -9.13094 | 337 ft | 0 kts | 77° |
| 2026-04-27 22:08 | 38.77026 | -9.13094 | 337 ft | 0 kts | 77° |
| 2026-04-27 22:08 | 38.77027 | -9.13094 | 337 ft | 0 kts | 77° |
| 2026-04-27 22:09 | 38.77026 | -9.13094 | 337 ft | 0 kts | 77° |
| 2026-04-27 22:25 | 38.77026 | -9.13095 | 337 ft | 0 kts | 77° |